createdAt,value
2018-09-09T00:01:02.378Z,17.50
2018-09-09T00:03:30.574Z,17.50
2018-09-09T00:05:58.828Z,17.60
2018-09-09T00:08:27.137Z,17.70
2018-09-09T00:10:55.350Z,17.70
2018-09-09T00:13:23.528Z,17.70
2018-09-09T00:15:51.708Z,17.60
2018-09-09T00:18:19.897Z,17.60
2018-09-09T00:20:48.092Z,17.50
2018-09-09T00:23:16.327Z,17.50
2018-09-09T00:25:44.631Z,17.50
2018-09-09T00:28:12.909Z,17.50
2018-09-09T00:30:41.119Z,17.50
2018-09-09T00:33:09.327Z,17.50
2018-09-09T00:35:37.569Z,17.50
2018-09-09T00:38:05.859Z,17.40
2018-09-09T00:40:34.100Z,17.30
2018-09-09T00:43:02.295Z,17.20
2018-09-09T00:45:30.514Z,17.20
2018-09-09T00:47:58.756Z,17.20
2018-09-09T00:50:32.432Z,17.10
2018-09-09T00:53:06.117Z,17.00
2018-09-09T00:55:34.356Z,16.90
2018-09-09T00:58:02.529Z,16.90
2018-09-09T01:00:36.285Z,16.80
2018-09-09T01:03:04.536Z,16.80
2018-09-09T01:05:32.772Z,16.80
2018-09-09T01:08:00.953Z,16.80
2018-09-09T01:10:29.160Z,16.80
2018-09-09T01:12:57.972Z,16.80
2018-09-09T01:15:26.376Z,16.70
2018-09-09T01:17:54.584Z,16.70
2018-09-09T01:20:23.020Z,16.70
2018-09-09T01:22:51.225Z,16.70
2018-09-09T01:25:19.417Z,16.70
2018-09-09T01:27:47.625Z,16.70
2018-09-09T01:30:15.873Z,16.70
2018-09-09T01:32:44.025Z,16.70
2018-09-09T01:35:12.232Z,16.70
2018-09-09T01:37:40.477Z,16.70
2018-09-09T01:40:08.745Z,16.70
2018-09-09T01:42:36.953Z,16.70
2018-09-09T01:45:05.187Z,16.80
2018-09-09T01:47:33.418Z,16.80
2018-09-09T01:50:01.633Z,16.70
2018-09-09T01:52:29.876Z,16.70
2018-09-09T01:54:58.148Z,16.80
2018-09-09T01:57:26.332Z,16.80
2018-09-09T01:59:54.520Z,16.70
2018-09-09T02:02:22.725Z,16.70
2018-09-09T02:04:50.955Z,16.70
2018-09-09T02:07:19.156Z,16.70
2018-09-09T02:09:47.400Z,16.70
2018-09-09T02:12:15.561Z,16.60
2018-09-09T02:14:43.786Z,16.60
2018-09-09T02:17:12.043Z,16.50
2018-09-09T02:19:40.228Z,16.50
2018-09-09T02:22:08.464Z,16.40
2018-09-09T02:24:36.703Z,16.30
2018-09-09T02:27:05.049Z,16.30
2018-09-09T02:29:33.264Z,16.40
2018-09-09T02:32:01.531Z,16.40
2018-09-09T02:34:29.717Z,16.40
2018-09-09T02:36:57.905Z,16.50
2018-09-09T02:39:26.116Z,16.40
2018-09-09T02:41:54.312Z,16.50
2018-09-09T02:44:22.539Z,16.40
2018-09-09T02:46:50.794Z,16.30
2018-09-09T02:49:19.020Z,16.40
2018-09-09T02:51:47.215Z,16.40
2018-09-09T02:54:15.393Z,16.50
2018-09-09T02:56:43.621Z,16.40
2018-09-09T02:59:11.849Z,16.50
2018-09-09T03:01:40.016Z,16.40
2018-09-09T03:04:08.216Z,16.20
2018-09-09T03:06:36.402Z,16.20
2018-09-09T03:09:04.908Z,16.10
2018-09-09T03:11:33.122Z,16.20
2018-09-09T03:14:01.396Z,16.20
2018-09-09T03:16:29.611Z,16.20
2018-09-09T03:18:57.835Z,16.10
2018-09-09T03:21:26.064Z,16.00
2018-09-09T03:23:54.216Z,15.90
2018-09-09T03:26:22.550Z,15.80
2018-09-09T03:28:50.907Z,15.90
2018-09-09T03:31:19.069Z,15.90
2018-09-09T03:33:47.333Z,15.90
2018-09-09T03:36:15.549Z,15.80
2018-09-09T03:38:43.828Z,15.70
2018-09-09T03:41:12.115Z,15.70
2018-09-09T03:43:40.304Z,15.60
2018-09-09T03:46:08.504Z,15.70
2018-09-09T03:48:36.745Z,15.60
2018-09-09T03:51:04.992Z,15.70
2018-09-09T03:53:33.253Z,15.80
2018-09-09T03:56:01.489Z,15.70
2018-09-09T03:58:29.675Z,15.80
2018-09-09T04:00:57.904Z,15.80
2018-09-09T04:03:26.084Z,15.80
2018-09-09T04:05:54.344Z,15.80
2018-09-09T04:08:22.609Z,15.80
2018-09-09T04:10:50.800Z,15.80
2018-09-09T04:13:19.119Z,15.60
2018-09-09T04:15:47.316Z,15.60
2018-09-09T04:18:15.496Z,15.60
2018-09-09T04:20:43.803Z,15.60
2018-09-09T04:23:11.981Z,15.50
2018-09-09T04:25:40.225Z,15.40
2018-09-09T04:28:08.413Z,15.40
2018-09-09T04:30:36.624Z,15.40
2018-09-09T04:33:04.878Z,15.40
2018-09-09T04:35:33.065Z,15.40
2018-09-09T04:38:01.280Z,15.50
2018-09-09T04:40:29.531Z,15.60
2018-09-09T04:42:57.688Z,15.50
2018-09-09T04:45:25.878Z,15.40
2018-09-09T04:47:54.087Z,15.30
2018-09-09T04:50:22.297Z,15.40
2018-09-09T04:52:50.532Z,15.40
2018-09-09T04:55:18.764Z,15.50
2018-09-09T04:57:46.960Z,15.60
2018-09-09T05:00:15.151Z,15.50
2018-09-09T05:02:43.408Z,15.60
2018-09-09T05:05:11.578Z,15.70
2018-09-09T05:07:39.768Z,15.70
2018-09-09T05:10:07.977Z,15.60
2018-09-09T05:12:36.158Z,15.60
2018-09-09T05:15:04.365Z,15.70
2018-09-09T05:17:32.708Z,15.70
2018-09-09T05:20:00.919Z,15.80
2018-09-09T05:22:29.099Z,15.80
2018-09-09T05:24:57.307Z,15.80
2018-09-09T05:27:25.700Z,15.70
2018-09-09T05:29:53.913Z,15.70
2018-09-09T05:32:22.238Z,15.80
2018-09-09T05:34:50.425Z,15.90
2018-09-09T05:37:18.895Z,15.90
2018-09-09T05:39:47.256Z,16.00
2018-09-09T05:42:15.535Z,16.00
2018-09-09T05:44:43.781Z,16.10
2018-09-09T05:47:11.920Z,16.00
2018-09-09T05:49:40.128Z,16.10
2018-09-09T05:52:08.399Z,16.10
2018-09-09T05:54:36.579Z,16.20
2018-09-09T05:57:04.788Z,16.40
2018-09-09T05:59:33.014Z,16.50
2018-09-09T06:02:01.277Z,16.50
2018-09-09T06:04:29.457Z,16.70
2018-09-09T06:06:58.471Z,16.60
2018-09-09T06:09:26.744Z,16.60
2018-09-09T06:11:54.946Z,16.70
2018-09-09T06:14:23.185Z,16.60
2018-09-09T06:16:51.360Z,16.80
2018-09-09T06:19:19.591Z,16.70
2018-09-09T06:21:47.837Z,16.70
2018-09-09T06:24:16.037Z,16.70
2018-09-09T06:26:44.295Z,16.60
2018-09-09T06:29:12.480Z,16.60
2018-09-09T06:31:40.712Z,16.70
2018-09-09T06:34:08.898Z,16.70
2018-09-09T06:36:37.123Z,16.80
2018-09-09T06:39:08.326Z,17.00
2018-09-09T06:41:36.476Z,17.00
2018-09-09T06:44:04.690Z,17.20
2018-09-09T06:46:32.888Z,17.30
2018-09-09T06:49:01.114Z,17.50
2018-09-09T06:51:29.346Z,18.00
2018-09-09T06:53:57.525Z,18.10
2018-09-09T06:56:25.724Z,18.10
2018-09-09T06:58:53.893Z,18.20
2018-09-09T07:01:22.056Z,18.40
2018-09-09T07:03:50.270Z,18.70
2018-09-09T07:06:18.482Z,19.00
2018-09-09T07:08:46.684Z,19.20
2018-09-09T07:11:14.864Z,19.60
2018-09-09T07:13:43.073Z,19.90
2018-09-09T07:16:11.290Z,19.90
2018-09-09T07:18:39.575Z,20.00
2018-09-09T07:21:07.967Z,19.90
2018-09-09T07:23:36.198Z,19.70
2018-09-09T07:26:05.063Z,19.80
2018-09-09T07:28:33.546Z,19.80
2018-09-09T07:31:01.812Z,19.90
2018-09-09T07:33:30.267Z,19.70
2018-09-09T07:35:58.665Z,19.70
2018-09-09T07:38:26.866Z,19.80
2018-09-09T07:40:55.335Z,19.60
2018-09-09T07:43:23.626Z,20.00
2018-09-09T07:45:51.811Z,20.50
2018-09-09T07:48:20.054Z,21.00
2018-09-09T07:50:48.975Z,21.20
2018-09-09T07:53:17.104Z,21.50
2018-09-09T07:55:45.313Z,21.70
2018-09-09T07:58:13.491Z,22.30
2018-09-09T08:00:41.699Z,22.60
2018-09-09T08:03:09.875Z,22.60
2018-09-09T08:05:38.092Z,22.60
2018-09-09T08:08:06.346Z,23.40
2018-09-09T08:10:34.770Z,24.60
2018-09-09T08:13:03.007Z,25.40
2018-09-09T08:15:33.312Z,25.70
2018-09-09T08:18:02.241Z,26.20
2018-09-09T08:20:30.452Z,26.40
2018-09-09T08:22:58.653Z,26.90
2018-09-09T08:25:26.905Z,27.60
2018-09-09T08:27:55.129Z,28.00
2018-09-09T08:30:23.325Z,28.40
2018-09-09T08:32:51.532Z,28.30
2018-09-09T08:35:19.874Z,28.50
2018-09-09T08:37:48.064Z,29.20
2018-09-09T08:40:16.356Z,29.70
2018-09-09T08:42:44.615Z,30.20
2018-09-09T08:45:12.772Z,28.90
2018-09-09T08:47:41.161Z,28.60
2018-09-09T08:50:09.380Z,28.00
2018-09-09T08:52:37.601Z,27.70
2018-09-09T08:55:05.803Z,27.70
2018-09-09T08:57:34.053Z,27.70
2018-09-09T09:00:02.184Z,27.50
2018-09-09T09:02:30.384Z,27.40
2018-09-09T09:04:58.589Z,27.40
2018-09-09T09:07:26.771Z,27.30
2018-09-09T09:09:54.923Z,27.00
2018-09-09T09:12:23.132Z,26.60
2018-09-09T09:14:51.397Z,26.60
2018-09-09T09:17:19.630Z,26.60
2018-09-09T09:19:47.812Z,26.90
2018-09-09T09:22:16.038Z,27.80
2018-09-09T09:24:44.244Z,28.90
2018-09-09T09:27:12.425Z,29.70
2018-09-09T09:29:46.038Z,31.00
2018-09-09T09:32:14.188Z,30.80
2018-09-09T09:34:43.539Z,30.30
2018-09-09T09:37:11.763Z,30.00
2018-09-09T09:39:39.935Z,30.70
2018-09-09T09:42:08.431Z,30.50
2018-09-09T09:44:36.706Z,30.30
2018-09-09T09:47:04.884Z,29.80
2018-09-09T09:49:34.868Z,29.20
2018-09-09T09:52:03.123Z,28.70
2018-09-09T09:54:31.355Z,28.20
2018-09-09T09:56:59.535Z,28.40
2018-09-09T09:59:27.734Z,29.10
2018-09-09T10:01:55.962Z,29.40
2018-09-09T10:04:24.173Z,30.50
2018-09-09T10:06:52.845Z,32.00
2018-09-09T10:09:21.187Z,32.10
2018-09-09T10:11:49.466Z,33.10
2018-09-09T10:14:17.697Z,33.90
2018-09-09T10:16:45.905Z,34.40
2018-09-09T10:19:14.099Z,34.50
2018-09-09T10:21:42.363Z,34.60
2018-09-09T10:24:10.606Z,34.60
2018-09-09T10:26:38.833Z,33.90
2018-09-09T10:29:07.065Z,34.20
2018-09-09T10:31:35.318Z,35.30
2018-09-09T10:34:03.627Z,35.00
2018-09-09T10:36:31.860Z,34.80
2018-09-09T10:39:00.107Z,35.00
2018-09-09T10:41:28.400Z,35.70
2018-09-09T10:43:56.638Z,35.90
2018-09-09T10:46:24.974Z,36.00
2018-09-09T10:48:54.237Z,34.90
2018-09-09T10:51:22.495Z,35.40
2018-09-09T10:53:51.749Z,35.50
2018-09-09T10:56:20.049Z,35.60
2018-09-09T10:58:48.455Z,35.70
2018-09-09T11:01:16.758Z,35.90
2018-09-09T11:03:44.967Z,35.40
2018-09-09T11:06:13.226Z,35.50
2018-09-09T11:08:41.420Z,35.20
2018-09-09T11:11:09.845Z,34.60
2018-09-09T11:13:38.041Z,33.50
2018-09-09T11:16:06.504Z,34.40
2018-09-09T11:18:34.776Z,35.00
2018-09-09T11:21:04.082Z,35.60
2018-09-09T11:23:32.281Z,36.00
2018-09-09T11:26:00.599Z,35.20
2018-09-09T11:28:28.881Z,34.10
2018-09-09T11:30:57.099Z,34.70
2018-09-09T11:33:25.340Z,35.00
2018-09-09T11:35:53.905Z,34.70
2018-09-09T11:38:22.194Z,33.90
2018-09-09T11:40:50.453Z,34.30
2018-09-09T11:43:18.777Z,33.30
2018-09-09T11:45:47.254Z,33.80
2018-09-09T11:48:15.549Z,35.10
2018-09-09T11:50:44.128Z,35.40
2018-09-09T11:53:12.746Z,35.60
2018-09-09T11:55:41.702Z,35.80
2018-09-09T11:58:10.452Z,35.50
2018-09-09T12:00:38.680Z,35.90
2018-09-09T12:03:07.138Z,35.90
2018-09-09T12:05:35.327Z,36.40
2018-09-09T12:08:03.573Z,36.30
2018-09-09T12:10:31.801Z,36.90
2018-09-09T12:13:00.399Z,37.90
2018-09-09T12:15:28.673Z,37.60
2018-09-09T12:17:56.888Z,35.70
2018-09-09T12:20:25.178Z,35.70
2018-09-09T12:22:53.385Z,35.20
2018-09-09T12:25:21.606Z,35.10
2018-09-09T12:27:49.821Z,36.00
2018-09-09T12:30:18.043Z,36.20
2018-09-09T12:32:46.393Z,37.00
2018-09-09T12:35:14.612Z,35.60
2018-09-09T12:37:42.897Z,35.50
2018-09-09T12:40:11.115Z,36.00
2018-09-09T12:42:39.457Z,36.40
2018-09-09T12:45:13.097Z,36.10
2018-09-09T12:48:45.761Z,35.30
2018-09-09T12:51:14.041Z,35.60
2018-09-09T12:53:42.319Z,36.00
2018-09-09T12:56:10.533Z,36.30
2018-09-09T12:58:38.756Z,36.10
2018-09-09T13:01:07.201Z,35.40
2018-09-09T13:03:35.493Z,34.40
2018-09-09T13:06:03.679Z,34.30
2018-09-09T13:08:31.930Z,33.50
2018-09-09T13:11:00.126Z,33.00
2018-09-09T13:13:28.356Z,31.60
2018-09-09T13:15:56.565Z,31.50
2018-09-09T13:18:25.134Z,32.40
2018-09-09T13:20:53.386Z,32.30
2018-09-09T13:23:21.632Z,31.90
2018-09-09T13:25:49.867Z,31.70
2018-09-09T13:28:18.054Z,31.70
2018-09-09T13:30:46.295Z,32.00
2018-09-09T13:33:14.464Z,31.90
2018-09-09T13:35:42.654Z,31.40
2018-09-09T13:38:10.868Z,31.10
2018-09-09T13:40:39.058Z,31.40
2018-09-09T13:43:07.223Z,31.20
2018-09-09T13:45:35.471Z,30.70
2018-09-09T13:48:03.683Z,30.70
2018-09-09T13:50:31.894Z,31.20
2018-09-09T13:53:00.057Z,31.40
2018-09-09T13:55:28.266Z,31.50
2018-09-09T13:57:56.560Z,31.70
2018-09-09T14:00:24.833Z,31.00
2018-09-09T14:02:53.173Z,31.00
2018-09-09T14:05:21.464Z,30.90
2018-09-09T14:07:49.798Z,31.00
2018-09-09T14:10:18.034Z,31.60
2018-09-09T14:12:46.297Z,31.90
2018-09-09T14:15:14.485Z,31.90
2018-09-09T14:17:42.704Z,31.70
2018-09-09T14:20:10.907Z,31.20
2018-09-09T14:22:39.180Z,31.00
2018-09-09T14:25:07.407Z,31.10
2018-09-09T14:27:35.604Z,30.70
2018-09-09T14:30:03.824Z,30.60
2018-09-09T14:32:32.100Z,30.70
2018-09-09T14:35:00.323Z,31.10
2018-09-09T14:37:28.475Z,31.10
2018-09-09T14:39:56.697Z,31.30
2018-09-09T14:42:24.894Z,31.40
2018-09-09T14:44:53.088Z,31.30
2018-09-09T14:47:21.316Z,31.00
2018-09-09T14:49:49.550Z,31.10
2018-09-09T14:52:17.841Z,31.00
2018-09-09T14:54:46.055Z,30.70
2018-09-09T14:57:14.225Z,30.10
2018-09-09T14:59:42.435Z,30.10
2018-09-09T15:02:10.608Z,29.90
2018-09-09T15:04:38.846Z,29.80
2018-09-09T15:07:07.526Z,29.50
2018-09-09T15:09:35.834Z,29.20
2018-09-09T15:12:04.019Z,29.20
2018-09-09T15:14:32.205Z,29.60
2018-09-09T15:17:00.539Z,29.80
2018-09-09T15:19:28.752Z,29.70
2018-09-09T15:21:56.989Z,29.50
2018-09-09T15:24:25.355Z,29.40
2018-09-09T15:26:53.654Z,29.50
2018-09-09T15:29:22.017Z,29.40
2018-09-09T15:31:50.214Z,29.30
2018-09-09T15:34:18.451Z,29.00
2018-09-09T15:36:46.710Z,28.80
2018-09-09T15:39:14.945Z,28.80
2018-09-09T15:41:43.105Z,28.80
2018-09-09T15:44:11.317Z,28.90
2018-09-09T15:46:39.535Z,29.00
2018-09-09T15:49:07.736Z,28.90
2018-09-09T15:51:35.999Z,28.90
2018-09-09T15:54:04.260Z,28.90
2018-09-09T15:56:32.439Z,29.00
2018-09-09T15:59:00.637Z,29.10
2018-09-09T16:01:28.947Z,29.10
2018-09-09T16:03:57.227Z,29.10
2018-09-09T16:06:25.448Z,29.20
2018-09-09T16:08:53.815Z,29.00
2018-09-09T16:11:22.092Z,28.70
2018-09-09T16:13:50.409Z,28.70
2018-09-09T16:16:18.686Z,28.70
2018-09-09T16:18:47.047Z,28.70
2018-09-09T16:21:15.319Z,28.70
2018-09-09T16:23:43.504Z,28.80
2018-09-09T16:26:11.827Z,28.50
2018-09-09T16:28:40.030Z,28.40
2018-09-09T16:31:08.252Z,28.20
2018-09-09T16:33:36.483Z,28.20
2018-09-09T16:36:04.727Z,28.10
2018-09-09T16:38:33.040Z,28.10
2018-09-09T16:41:01.620Z,28.20
2018-09-09T16:43:29.893Z,28.20
2018-09-09T16:45:58.169Z,28.10
2018-09-09T16:48:26.815Z,28.10
2018-09-09T16:50:55.364Z,28.00
2018-09-09T16:53:23.644Z,27.90
2018-09-09T16:55:51.822Z,27.80
2018-09-09T16:58:20.039Z,27.70
2018-09-09T17:00:48.243Z,27.80
2018-09-09T17:03:16.461Z,27.60
2018-09-09T17:05:44.648Z,27.60
2018-09-09T17:08:12.883Z,27.50
2018-09-09T17:10:41.127Z,27.50
2018-09-09T17:13:09.447Z,27.50
2018-09-09T17:15:37.664Z,27.40
2018-09-09T17:18:05.852Z,27.30
2018-09-09T17:20:34.093Z,27.20
2018-09-09T17:23:02.323Z,27.10
2018-09-09T17:25:30.564Z,27.00
2018-09-09T17:27:59.228Z,27.10
2018-09-09T17:30:27.387Z,27.00
2018-09-09T17:32:55.663Z,26.80
2018-09-09T17:35:23.924Z,26.60
2018-09-09T17:37:52.135Z,26.50
2018-09-09T17:40:20.383Z,26.40
2018-09-09T17:42:48.588Z,26.40
2018-09-09T17:45:16.942Z,26.30
2018-09-09T17:47:45.141Z,26.30
2018-09-09T17:50:13.400Z,26.20
2018-09-09T17:52:41.592Z,26.20
2018-09-09T17:55:09.816Z,26.10
2018-09-09T17:57:38.005Z,26.00
2018-09-09T18:00:09.606Z,26.00
2018-09-09T18:02:37.902Z,25.80
2018-09-09T18:05:06.097Z,25.80
2018-09-09T18:07:34.339Z,25.70
2018-09-09T18:10:02.539Z,25.70
2018-09-09T18:12:30.767Z,25.70
2018-09-09T18:14:58.964Z,25.60
2018-09-09T18:17:33.901Z,25.50
2018-09-09T18:20:02.137Z,25.40
2018-09-09T18:22:30.399Z,25.20
2018-09-09T18:24:58.648Z,24.90
2018-09-09T18:27:26.940Z,24.80
2018-09-09T18:29:55.243Z,24.70
2018-09-09T18:32:23.432Z,24.50
2018-09-09T18:34:51.651Z,24.50
2018-09-09T18:37:19.829Z,24.40
2018-09-09T18:39:48.060Z,24.40
2018-09-09T18:42:16.391Z,24.30
2018-09-09T18:44:44.738Z,24.00
2018-09-09T18:47:12.963Z,23.90
2018-09-09T18:49:41.622Z,23.80
2018-09-09T18:52:10.315Z,23.70
2018-09-09T18:54:39.130Z,23.70
2018-09-09T18:57:07.941Z,23.50
2018-09-09T18:59:36.747Z,23.50
2018-09-09T19:02:07.107Z,23.30
2018-09-09T19:04:36.587Z,23.40
2018-09-09T19:07:06.148Z,23.40
2018-09-09T19:09:36.036Z,23.30
2018-09-09T19:12:04.381Z,23.20
2018-09-09T19:14:32.709Z,23.10
2018-09-09T19:17:00.947Z,23.10
2018-09-09T19:19:29.186Z,22.90
2018-09-09T19:21:57.452Z,22.90
2018-09-09T19:24:25.672Z,23.00
2018-09-09T19:26:54.208Z,22.90
2018-09-09T19:29:22.477Z,22.80
2018-09-09T19:31:50.956Z,22.80
2018-09-09T19:34:19.363Z,22.80
2018-09-09T19:36:47.832Z,22.80
2018-09-09T19:39:16.293Z,22.70
2018-09-09T19:41:44.793Z,22.60
2018-09-09T19:44:13.195Z,22.50
2018-09-09T19:46:41.359Z,22.50
2018-09-09T19:49:10.234Z,22.50
2018-09-09T19:51:38.473Z,22.50
2018-09-09T19:54:06.774Z,22.40
2018-09-09T19:56:34.953Z,22.50
2018-09-09T19:59:03.180Z,22.50
2018-09-09T20:01:31.361Z,22.30
2018-09-09T20:03:59.552Z,22.30
2018-09-09T20:06:27.748Z,22.20
2018-09-09T20:08:56.039Z,22.20
2018-09-09T20:11:24.283Z,22.10
2018-09-09T20:13:52.708Z,22.10
2018-09-09T20:16:20.997Z,22.00
2018-09-09T20:18:49.245Z,22.10
2018-09-09T20:21:17.423Z,22.00
2018-09-09T20:23:46.359Z,21.90
2018-09-09T20:26:14.979Z,21.90
2018-09-09T20:28:43.288Z,22.00
2018-09-09T20:31:11.553Z,21.80
2018-09-09T20:33:40.056Z,21.70
2018-09-09T20:36:08.259Z,21.70
2018-09-09T20:38:36.530Z,21.60
2018-09-09T20:41:04.874Z,21.50
2018-09-09T20:43:33.221Z,21.40
2018-09-09T20:46:01.411Z,21.40
2018-09-09T20:48:30.152Z,21.60
2018-09-09T20:50:58.576Z,21.60
2018-09-09T20:53:26.785Z,21.70
2018-09-09T20:55:54.960Z,21.60
2018-09-09T20:58:23.176Z,21.50
2018-09-09T21:00:51.456Z,21.50
2018-09-09T21:03:19.796Z,21.40
2018-09-09T21:05:47.969Z,21.20
2018-09-09T21:08:16.233Z,21.20
2018-09-09T21:10:44.459Z,21.10
2018-09-09T21:13:12.704Z,21.00
2018-09-09T21:15:40.930Z,21.10
2018-09-09T21:18:09.211Z,21.00
2018-09-09T21:20:37.463Z,21.00
2018-09-09T21:23:05.703Z,21.00
2018-09-09T21:25:33.885Z,20.70
2018-09-09T21:28:02.106Z,20.80
2018-09-09T21:30:30.304Z,20.70
2018-09-09T21:32:58.545Z,20.70
2018-09-09T21:35:26.752Z,20.70
2018-09-09T21:37:54.926Z,20.60
2018-09-09T21:40:23.126Z,20.50
2018-09-09T21:42:51.330Z,20.50
2018-09-09T21:45:19.515Z,20.50
2018-09-09T21:47:47.734Z,20.60
2018-09-09T21:50:15.912Z,20.40
2018-09-09T21:52:44.126Z,20.30
2018-09-09T21:55:12.332Z,20.00
2018-09-09T21:57:40.631Z,20.00
2018-09-09T22:00:10.277Z,20.00
2018-09-09T22:02:38.450Z,20.00
2018-09-09T22:05:07.592Z,19.80
2018-09-09T22:07:35.813Z,19.70
2018-09-09T22:10:04.480Z,19.70
2018-09-09T22:12:32.653Z,19.60
2018-09-09T22:15:00.863Z,19.60
2018-09-09T22:17:29.163Z,19.40
2018-09-09T22:19:58.330Z,19.40
2018-09-09T22:22:26.547Z,19.30
2018-09-09T22:24:54.811Z,19.40
2018-09-09T22:27:22.987Z,19.40
2018-09-09T22:29:51.255Z,19.30
2018-09-09T22:32:19.451Z,19.20
2018-09-09T22:34:47.639Z,18.90
2018-09-09T22:37:15.832Z,18.90
2018-09-09T22:39:43.997Z,18.70
2018-09-09T22:42:12.171Z,18.70
2018-09-09T22:44:40.679Z,18.60
2018-09-09T22:47:09.105Z,18.60
2018-09-09T22:49:37.524Z,18.60
2018-09-09T22:52:06.587Z,18.80
2018-09-09T22:54:34.788Z,18.80
2018-09-09T22:57:03.009Z,18.70
2018-09-09T22:59:31.193Z,18.60
2018-09-09T23:01:59.522Z,18.60
2018-09-09T23:04:27.700Z,18.60
2018-09-09T23:06:55.887Z,18.50
2018-09-09T23:09:24.851Z,18.50
2018-09-09T23:11:53.101Z,18.50
2018-09-09T23:14:21.320Z,18.50
2018-09-09T23:16:49.505Z,18.30
2018-09-09T23:19:17.721Z,18.20
2018-09-09T23:21:45.914Z,18.20
2018-09-09T23:24:14.118Z,18.30
2018-09-09T23:26:42.319Z,18.40
2018-09-09T23:29:10.553Z,18.40
2018-09-09T23:31:38.763Z,18.30
2018-09-09T23:34:07.203Z,18.30
2018-09-09T23:36:35.425Z,18.30
2018-09-09T23:39:04.627Z,18.20
2018-09-09T23:41:32.836Z,18.20
2018-09-09T23:44:01.014Z,18.20
2018-09-09T23:46:29.252Z,18.20
2018-09-09T23:48:57.423Z,18.20
2018-09-09T23:51:25.610Z,18.20
2018-09-09T23:53:53.820Z,18.10
2018-09-09T23:56:21.971Z,18.20
2018-09-09T23:58:50.189Z,18.30
